sensor_id;sensor_type;location;lat;lon;timestamp;P1;durP1;ratioP1;P2;durP2;ratioP2
39314;SDS011;28703;44.412;11.918;2023-03-05T00:00:47;31.48;;;22.10;;
39314;SDS011;28703;44.412;11.918;2023-03-05T00:03:12;33.38;;;24.65;;
39314;SDS011;28703;44.412;11.918;2023-03-05T00:05:39;41.45;;;24.55;;
39314;SDS011;28703;44.412;11.918;2023-03-05T00:08:05;37.85;;;25.08;;
39314;SDS011;28703;44.412;11.918;2023-03-05T00:10:31;45.65;;;24.00;;
39314;SDS011;28703;44.412;11.918;2023-03-05T00:12:57;41.67;;;26.02;;
39314;SDS011;28703;44.412;11.918;2023-03-05T00:15:23;48.20;;;26.05;;
39314;SDS011;28703;44.412;11.918;2023-03-05T00:17:48;44.75;;;27.48;;
39314;SDS011;28703;44.412;11.918;2023-03-05T00:20:14;36.45;;;25.80;;
39314;SDS011;28703;44.412;11.918;2023-03-05T00:22:40;46.88;;;28.23;;
39314;SDS011;28703;44.412;11.918;2023-03-05T00:25:06;41.55;;;27.48;;
39314;SDS011;28703;44.412;11.918;2023-03-05T00:27:36;48.85;;;26.13;;
39314;SDS011;28703;44.412;11.918;2023-03-05T00:30:02;45.90;;;26.13;;
39314;SDS011;28703;44.412;11.918;2023-03-05T00:32:28;40.25;;;24.88;;
39314;SDS011;28703;44.412;11.918;2023-03-05T00:34:53;33.67;;;23.15;;
39314;SDS011;28703;44.412;11.918;2023-03-05T00:37:19;35.97;;;23.80;;
39314;SDS011;28703;44.412;11.918;2023-03-05T00:39:45;34.22;;;23.70;;
39314;SDS011;28703;44.412;11.918;2023-03-05T00:42:13;34.22;;;23.75;;
39314;SDS011;28703;44.412;11.918;2023-03-05T00:44:39;35.80;;;24.58;;
39314;SDS011;28703;44.412;11.918;2023-03-05T00:47:05;42.00;;;25.55;;
39314;SDS011;28703;44.412;11.918;2023-03-05T00:49:31;38.50;;;26.05;;
39314;SDS011;28703;44.412;11.918;2023-03-05T00:51:57;36.47;;;24.80;;
39314;SDS011;28703;44.412;11.918;2023-03-05T00:54:23;42.15;;;26.42;;
39314;SDS011;28703;44.412;11.918;2023-03-05T00:56:49;37.28;;;24.77;;
39314;SDS011;28703;44.412;11.918;2023-03-05T00:59:15;40.50;;;24.02;;
39314;SDS011;28703;44.412;11.918;2023-03-05T01:01:41;38.85;;;24.02;;
39314;SDS011;28703;44.412;11.918;2023-03-05T01:04:06;34.17;;;23.30;;
39314;SDS011;28703;44.412;11.918;2023-03-05T01:06:33;36.83;;;24.40;;
39314;SDS011;28703;44.412;11.918;2023-03-05T01:09:00;41.00;;;22.50;;
39314;SDS011;28703;44.412;11.918;2023-03-05T01:11:25;34.15;;;21.65;;
39314;SDS011;28703;44.412;11.918;2023-03-05T01:13:51;33.15;;;20.40;;
39314;SDS011;28703;44.412;11.918;2023-03-05T01:16:17;33.33;;;19.85;;
39314;SDS011;28703;44.412;11.918;2023-03-05T01:18:43;33.28;;;19.67;;
39314;SDS011;28703;44.412;11.918;2023-03-05T01:21:09;27.92;;;18.45;;
39314;SDS011;28703;44.412;11.918;2023-03-05T01:23:35;31.35;;;18.75;;
39314;SDS011;28703;44.412;11.918;2023-03-05T01:26:01;31.55;;;18.48;;
39314;SDS011;28703;44.412;11.918;2023-03-05T01:28:28;28.23;;;19.25;;
39314;SDS011;28703;44.412;11.918;2023-03-05T01:30:54;29.23;;;17.48;;
39314;SDS011;28703;44.412;11.918;2023-03-05T01:33:19;29.38;;;17.92;;
39314;SDS011;28703;44.412;11.918;2023-03-05T01:35:46;29.70;;;17.45;;
39314;SDS011;28703;44.412;11.918;2023-03-05T01:38:13;31.85;;;17.98;;
39314;SDS011;28703;44.412;11.918;2023-03-05T01:40:40;34.53;;;18.55;;
39314;SDS011;28703;44.412;11.918;2023-03-05T01:45:36;36.83;;;19.48;;
39314;SDS011;28703;44.412;11.918;2023-03-05T01:48:02;34.58;;;19.63;;
39314;SDS011;28703;44.412;11.918;2023-03-05T01:50:29;29.08;;;18.13;;
39314;SDS011;28703;44.412;11.918;2023-03-05T01:53:00;28.92;;;19.35;;
39314;SDS011;28703;44.412;11.918;2023-03-05T01:55:30;33.13;;;18.67;;
39314;SDS011;28703;44.412;11.918;2023-03-05T01:58:02;28.48;;;20.52;;
39314;SDS011;28703;44.412;11.918;2023-03-05T02:00:33;32.58;;;19.27;;
39314;SDS011;28703;44.412;11.918;2023-03-05T02:03:04;28.65;;;20.83;;
39314;SDS011;28703;44.412;11.918;2023-03-05T02:05:35;35.90;;;21.20;;
39314;SDS011;28703;44.412;11.918;2023-03-05T02:08:04;34.00;;;21.48;;
39314;SDS011;28703;44.412;11.918;2023-03-05T02:10:41;27.67;;;20.08;;
39314;SDS011;28703;44.412;11.918;2023-03-05T02:13:10;33.33;;;21.00;;
39314;SDS011;28703;44.412;11.918;2023-03-05T02:15:39;35.42;;;20.42;;
39314;SDS011;28703;44.412;11.918;2023-03-05T02:18:06;33.05;;;20.35;;
39314;SDS011;28703;44.412;11.918;2023-03-05T02:20:43;33.30;;;19.38;;
39314;SDS011;28703;44.412;11.918;2023-03-05T02:23:18;31.02;;;20.27;;
39314;SDS011;28703;44.412;11.918;2023-03-05T02:25:46;27.25;;;20.20;;
39314;SDS011;28703;44.412;11.918;2023-03-05T02:30:42;33.50;;;20.17;;
39314;SDS011;28703;44.412;11.918;2023-03-05T02:33:08;33.03;;;19.95;;
39314;SDS011;28703;44.412;11.918;2023-03-05T02:35:33;30.00;;;18.70;;
39314;SDS011;28703;44.412;11.918;2023-03-05T02:38:01;31.40;;;20.95;;
39314;SDS011;28703;44.412;11.918;2023-03-05T02:40:27;32.58;;;19.70;;
39314;SDS011;28703;44.412;11.918;2023-03-05T02:42:53;28.90;;;18.85;;
39314;SDS011;28703;44.412;11.918;2023-03-05T02:45:19;29.17;;;19.23;;
39314;SDS011;28703;44.412;11.918;2023-03-05T02:47:45;28.23;;;18.88;;
39314;SDS011;28703;44.412;11.918;2023-03-05T02:50:11;28.40;;;18.98;;
39314;SDS011;28703;44.412;11.918;2023-03-05T02:52:38;31.60;;;20.40;;
39314;SDS011;28703;44.412;11.918;2023-03-05T02:55:09;26.30;;;18.35;;
39314;SDS011;28703;44.412;11.918;2023-03-05T02:57:36;34.22;;;18.60;;
39314;SDS011;28703;44.412;11.918;2023-03-05T03:00:03;29.30;;;18.83;;
39314;SDS011;28703;44.412;11.918;2023-03-05T03:02:29;31.33;;;18.42;;
39314;SDS011;28703;44.412;11.918;2023-03-05T03:05:00;31.30;;;17.88;;
39314;SDS011;28703;44.412;11.918;2023-03-05T03:07:27;25.75;;;17.73;;
39314;SDS011;28703;44.412;11.918;2023-03-05T03:09:52;24.00;;;17.17;;
39314;SDS011;28703;44.412;11.918;2023-03-05T03:12:18;31.23;;;18.00;;
39314;SDS011;28703;44.412;11.918;2023-03-05T03:14:44;31.15;;;16.90;;
39314;SDS011;28703;44.412;11.918;2023-03-05T03:17:11;26.58;;;17.25;;
39314;SDS011;28703;44.412;11.918;2023-03-05T03:19:39;32.40;;;16.75;;
39314;SDS011;28703;44.412;11.918;2023-03-05T03:22:06;26.98;;;16.77;;
39314;SDS011;28703;44.412;11.918;2023-03-05T03:24:33;29.98;;;17.80;;
39314;SDS011;28703;44.412;11.918;2023-03-05T03:27:00;31.33;;;18.23;;
39314;SDS011;28703;44.412;11.918;2023-03-05T03:29:26;28.08;;;17.20;;
39314;SDS011;28703;44.412;11.918;2023-03-05T03:31:52;27.90;;;16.58;;
39314;SDS011;28703;44.412;11.918;2023-03-05T03:34:20;28.45;;;17.05;;
39314;SDS011;28703;44.412;11.918;2023-03-05T03:36:46;24.52;;;15.60;;
39314;SDS011;28703;44.412;11.918;2023-03-05T03:39:14;27.33;;;15.50;;
39314;SDS011;28703;44.412;11.918;2023-03-05T03:41:41;24.73;;;16.98;;
39314;SDS011;28703;44.412;11.918;2023-03-05T03:44:08;26.40;;;14.90;;
39314;SDS011;28703;44.412;11.918;2023-03-05T03:46:35;26.08;;;14.88;;
39314;SDS011;28703;44.412;11.918;2023-03-05T03:49:02;25.58;;;15.57;;
39314;SDS011;28703;44.412;11.918;2023-03-05T03:51:28;24.52;;;15.00;;
39314;SDS011;28703;44.412;11.918;2023-03-05T03:53:54;27.83;;;15.52;;
39314;SDS011;28703;44.412;11.918;2023-03-05T03:56:21;27.60;;;14.07;;
39314;SDS011;28703;44.412;11.918;2023-03-05T03:58:50;23.77;;;14.02;;
39314;SDS011;28703;44.412;11.918;2023-03-05T04:01:17;20.67;;;12.38;;
39314;SDS011;28703;44.412;11.918;2023-03-05T04:03:43;23.25;;;12.35;;
39314;SDS011;28703;44.412;11.918;2023-03-05T04:06:09;21.05;;;11.55;;
39314;SDS011;28703;44.412;11.918;2023-03-05T04:08:35;22.15;;;13.13;;
39314;SDS011;28703;44.412;11.918;2023-03-05T04:11:01;20.27;;;12.55;;
39314;SDS011;28703;44.412;11.918;2023-03-05T04:13:27;25.00;;;11.50;;
39314;SDS011;28703;44.412;11.918;2023-03-05T04:15:53;15.25;;;10.57;;
39314;SDS011;28703;44.412;11.918;2023-03-05T04:18:20;16.65;;;11.80;;
39314;SDS011;28703;44.412;11.918;2023-03-05T04:20:46;19.75;;;11.23;;
39314;SDS011;28703;44.412;11.918;2023-03-05T04:23:12;13.63;;;9.65;;
39314;SDS011;28703;44.412;11.918;2023-03-05T04:25:38;19.00;;;9.45;;
39314;SDS011;28703;44.412;11.918;2023-03-05T04:28:04;19.50;;;10.45;;
39314;SDS011;28703;44.412;11.918;2023-03-05T04:30:30;19.20;;;10.32;;
39314;SDS011;28703;44.412;11.918;2023-03-05T04:32:56;15.70;;;10.15;;
39314;SDS011;28703;44.412;11.918;2023-03-05T04:35:22;18.50;;;10.45;;
39314;SDS011;28703;44.412;11.918;2023-03-05T04:37:48;13.43;;;9.13;;
39314;SDS011;28703;44.412;11.918;2023-03-05T04:40:15;13.82;;;8.30;;
39314;SDS011;28703;44.412;11.918;2023-03-05T04:42:42;13.07;;;7.82;;
39314;SDS011;28703;44.412;11.918;2023-03-05T04:45:08;15.48;;;7.60;;
39314;SDS011;28703;44.412;11.918;2023-03-05T04:47:35;16.10;;;8.48;;
39314;SDS011;28703;44.412;11.918;2023-03-05T04:50:02;19.33;;;9.15;;
39314;SDS011;28703;44.412;11.918;2023-03-05T04:52:29;16.75;;;9.10;;
39314;SDS011;28703;44.412;11.918;2023-03-05T04:54:55;18.00;;;10.30;;
39314;SDS011;28703;44.412;11.918;2023-03-05T04:57:21;25.70;;;9.75;;
39314;SDS011;28703;44.412;11.918;2023-03-05T04:59:47;14.63;;;10.45;;
39314;SDS011;28703;44.412;11.918;2023-03-05T05:02:12;19.92;;;10.10;;
39314;SDS011;28703;44.412;11.918;2023-03-05T05:04:38;19.35;;;10.93;;
39314;SDS011;28703;44.412;11.918;2023-03-05T05:07:07;18.55;;;11.25;;
39314;SDS011;28703;44.412;11.918;2023-03-05T05:09:33;16.20;;;10.93;;
39314;SDS011;28703;44.412;11.918;2023-03-05T05:11:59;21.40;;;11.38;;
39314;SDS011;28703;44.412;11.918;2023-03-05T05:14:25;22.20;;;11.32;;
39314;SDS011;28703;44.412;11.918;2023-03-05T05:16:51;18.10;;;11.65;;
39314;SDS011;28703;44.412;11.918;2023-03-05T05:19:16;16.42;;;11.30;;
39314;SDS011;28703;44.412;11.918;2023-03-05T05:21:42;15.90;;;10.88;;
39314;SDS011;28703;44.412;11.918;2023-03-05T05:24:08;18.17;;;10.93;;
39314;SDS011;28703;44.412;11.918;2023-03-05T05:26:34;16.98;;;10.77;;
39314;SDS011;28703;44.412;11.918;2023-03-05T05:29:00;14.23;;;9.55;;
39314;SDS011;28703;44.412;11.918;2023-03-05T05:31:26;23.13;;;11.63;;
39314;SDS011;28703;44.412;11.918;2023-03-05T05:33:52;16.23;;;11.02;;
39314;SDS011;28703;44.412;11.918;2023-03-05T05:36:18;14.88;;;10.13;;
39314;SDS011;28703;44.412;11.918;2023-03-05T05:38:46;18.52;;;10.73;;
39314;SDS011;28703;44.412;11.918;2023-03-05T05:41:13;18.45;;;10.88;;
39314;SDS011;28703;44.412;11.918;2023-03-05T05:43:41;20.88;;;10.82;;
39314;SDS011;28703;44.412;11.918;2023-03-05T05:46:10;22.30;;;12.10;;
39314;SDS011;28703;44.412;11.918;2023-03-05T05:48:38;24.35;;;10.95;;
39314;SDS011;28703;44.412;11.918;2023-03-05T05:51:04;19.95;;;11.45;;
39314;SDS011;28703;44.412;11.918;2023-03-05T05:53:32;16.98;;;11.40;;
39314;SDS011;28703;44.412;11.918;2023-03-05T05:55:58;17.80;;;9.93;;
39314;SDS011;28703;44.412;11.918;2023-03-05T05:58:24;17.40;;;10.13;;
39314;SDS011;28703;44.412;11.918;2023-03-05T06:00:50;14.45;;;9.93;;
39314;SDS011;28703;44.412;11.918;2023-03-05T06:03:16;16.63;;;11.38;;
39314;SDS011;28703;44.412;11.918;2023-03-05T06:05:44;16.30;;;10.32;;
39314;SDS011;28703;44.412;11.918;2023-03-05T06:08:11;16.25;;;10.18;;
39314;SDS011;28703;44.412;11.918;2023-03-05T06:10:38;15.23;;;10.32;;
39314;SDS011;28703;44.412;11.918;2023-03-05T06:13:04;15.32;;;10.50;;
39314;SDS011;28703;44.412;11.918;2023-03-05T06:15:31;16.17;;;10.98;;
39314;SDS011;28703;44.412;11.918;2023-03-05T06:17:57;18.92;;;11.98;;
39314;SDS011;28703;44.412;11.918;2023-03-05T06:20:24;16.77;;;11.27;;
39314;SDS011;28703;44.412;11.918;2023-03-05T06:22:50;18.85;;;12.95;;
39314;SDS011;28703;44.412;11.918;2023-03-05T06:25:16;23.80;;;13.23;;
39314;SDS011;28703;44.412;11.918;2023-03-05T06:27:42;23.65;;;13.63;;
39314;SDS011;28703;44.412;11.918;2023-03-05T06:30:08;18.30;;;13.38;;
39314;SDS011;28703;44.412;11.918;2023-03-05T06:32:35;19.08;;;12.10;;
39314;SDS011;28703;44.412;11.918;2023-03-05T06:35:01;20.15;;;12.55;;
39314;SDS011;28703;44.412;11.918;2023-03-05T06:37:27;21.73;;;13.95;;
39314;SDS011;28703;44.412;11.918;2023-03-05T06:39:53;20.70;;;13.55;;
39314;SDS011;28703;44.412;11.918;2023-03-05T06:42:19;20.95;;;13.18;;
39314;SDS011;28703;44.412;11.918;2023-03-05T06:44:45;22.35;;;13.48;;
39314;SDS011;28703;44.412;11.918;2023-03-05T06:47:11;20.17;;;13.55;;
39314;SDS011;28703;44.412;11.918;2023-03-05T06:49:37;25.25;;;14.95;;
39314;SDS011;28703;44.412;11.918;2023-03-05T06:52:04;21.55;;;14.30;;
39314;SDS011;28703;44.412;11.918;2023-03-05T06:54:31;23.27;;;13.88;;
39314;SDS011;28703;44.412;11.918;2023-03-05T06:56:57;22.48;;;13.15;;
39314;SDS011;28703;44.412;11.918;2023-03-05T06:59:23;22.20;;;12.48;;
39314;SDS011;28703;44.412;11.918;2023-03-05T07:01:49;15.50;;;10.73;;
39314;SDS011;28703;44.412;11.918;2023-03-05T07:04:15;19.48;;;10.50;;
39314;SDS011;28703;44.412;11.918;2023-03-05T07:06:41;18.45;;;9.32;;
39314;SDS011;28703;44.412;11.918;2023-03-05T07:09:09;11.70;;;8.95;;
39314;SDS011;28703;44.412;11.918;2023-03-05T07:11:39;16.40;;;9.38;;
39314;SDS011;28703;44.412;11.918;2023-03-05T07:14:05;12.57;;;9.07;;
39314;SDS011;28703;44.412;11.918;2023-03-05T07:16:32;12.10;;;8.57;;
39314;SDS011;28703;44.412;11.918;2023-03-05T07:18:59;10.93;;;8.00;;
39314;SDS011;28703;44.412;11.918;2023-03-05T07:21:28;21.67;;;10.65;;
39314;SDS011;28703;44.412;11.918;2023-03-05T07:23:56;15.60;;;8.68;;
39314;SDS011;28703;44.412;11.918;2023-03-05T07:26:24;15.18;;;8.23;;
39314;SDS011;28703;44.412;11.918;2023-03-05T07:28:50;15.07;;;7.95;;
39314;SDS011;28703;44.412;11.918;2023-03-05T07:31:17;15.45;;;9.85;;
39314;SDS011;28703;44.412;11.918;2023-03-05T07:33:46;14.43;;;9.10;;
39314;SDS011;28703;44.412;11.918;2023-03-05T07:36:12;20.73;;;9.45;;
39314;SDS011;28703;44.412;11.918;2023-03-05T07:38:39;16.02;;;8.18;;
39314;SDS011;28703;44.412;11.918;2023-03-05T07:41:09;11.25;;;8.43;;
39314;SDS011;28703;44.412;11.918;2023-03-05T07:43:37;12.35;;;7.95;;
39314;SDS011;28703;44.412;11.918;2023-03-05T07:46:08;17.88;;;7.88;;
39314;SDS011;28703;44.412;11.918;2023-03-05T07:48:35;12.90;;;8.45;;
39314;SDS011;28703;44.412;11.918;2023-03-05T07:51:02;12.20;;;8.98;;
39314;SDS011;28703;44.412;11.918;2023-03-05T07:53:30;18.45;;;9.00;;
39314;SDS011;28703;44.412;11.918;2023-03-05T07:55:56;17.50;;;9.20;;
39314;SDS011;28703;44.412;11.918;2023-03-05T07:58:25;13.77;;;8.88;;
39314;SDS011;28703;44.412;11.918;2023-03-05T08:00:51;16.08;;;8.32;;
39314;SDS011;28703;44.412;11.918;2023-03-05T08:03:17;13.70;;;9.55;;
39314;SDS011;28703;44.412;11.918;2023-03-05T08:05:44;13.88;;;8.80;;
39314;SDS011;28703;44.412;11.918;2023-03-05T08:08:10;19.65;;;10.20;;
39314;SDS011;28703;44.412;11.918;2023-03-05T08:10:37;18.45;;;9.05;;
39314;SDS011;28703;44.412;11.918;2023-03-05T08:13:04;20.95;;;10.57;;
39314;SDS011;28703;44.412;11.918;2023-03-05T08:15:30;17.65;;;9.55;;
39314;SDS011;28703;44.412;11.918;2023-03-05T08:17:56;12.88;;;8.70;;
39314;SDS011;28703;44.412;11.918;2023-03-05T08:20:23;14.15;;;7.82;;
39314;SDS011;28703;44.412;11.918;2023-03-05T08:22:51;18.52;;;9.68;;
39314;SDS011;28703;44.412;11.918;2023-03-05T08:25:17;17.23;;;7.45;;
39314;SDS011;28703;44.412;11.918;2023-03-05T08:27:44;14.05;;;7.53;;
39314;SDS011;28703;44.412;11.918;2023-03-05T08:30:12;10.63;;;7.32;;
39314;SDS011;28703;44.412;11.918;2023-03-05T08:32:40;18.85;;;8.70;;
39314;SDS011;28703;44.412;11.918;2023-03-05T08:35:07;11.85;;;8.35;;
39314;SDS011;28703;44.412;11.918;2023-03-05T08:37:35;17.90;;;9.55;;
39314;SDS011;28703;44.412;11.918;2023-03-05T08:40:01;14.25;;;8.40;;
39314;SDS011;28703;44.412;11.918;2023-03-05T08:42:28;14.10;;;9.10;;
39314;SDS011;28703;44.412;11.918;2023-03-05T08:44:54;13.70;;;8.82;;
39314;SDS011;28703;44.412;11.918;2023-03-05T08:47:25;16.80;;;10.40;;
39314;SDS011;28703;44.412;11.918;2023-03-05T08:49:52;15.15;;;9.95;;
39314;SDS011;28703;44.412;11.918;2023-03-05T08:52:22;20.13;;;8.98;;
39314;SDS011;28703;44.412;11.918;2023-03-05T08:54:48;12.88;;;7.45;;
39314;SDS011;28703;44.412;11.918;2023-03-05T08:57:13;12.30;;;6.85;;
39314;SDS011;28703;44.412;11.918;2023-03-05T08:59:39;10.90;;;6.95;;
39314;SDS011;28703;44.412;11.918;2023-03-05T09:02:05;14.30;;;7.57;;
39314;SDS011;28703;44.412;11.918;2023-03-05T09:04:31;16.10;;;9.40;;
39314;SDS011;28703;44.412;11.918;2023-03-05T09:06:57;17.10;;;9.27;;
39314;SDS011;28703;44.412;11.918;2023-03-05T09:09:23;11.77;;;7.20;;
39314;SDS011;28703;44.412;11.918;2023-03-05T09:11:49;15.52;;;7.07;;
39314;SDS011;28703;44.412;11.918;2023-03-05T09:14:17;16.65;;;8.02;;
39314;SDS011;28703;44.412;11.918;2023-03-05T09:16:46;13.07;;;6.55;;
39314;SDS011;28703;44.412;11.918;2023-03-05T09:19:12;10.02;;;7.13;;
39314;SDS011;28703;44.412;11.918;2023-03-05T09:21:39;12.82;;;7.72;;
39314;SDS011;28703;44.412;11.918;2023-03-05T09:24:06;14.00;;;7.43;;
39314;SDS011;28703;44.412;11.918;2023-03-05T09:26:32;10.98;;;6.80;;
39314;SDS011;28703;44.412;11.918;2023-03-05T09:28:58;12.50;;;6.75;;
39314;SDS011;28703;44.412;11.918;2023-03-05T09:31:24;17.38;;;6.82;;
39314;SDS011;28703;44.412;11.918;2023-03-05T09:33:50;10.50;;;6.97;;
39314;SDS011;28703;44.412;11.918;2023-03-05T09:36:20;21.63;;;11.90;;
39314;SDS011;28703;44.412;11.918;2023-03-05T09:38:48;15.43;;;9.98;;
39314;SDS011;28703;44.412;11.918;2023-03-05T09:41:16;13.68;;;7.95;;
39314;SDS011;28703;44.412;11.918;2023-03-05T09:52:20;17.85;;;8.77;;
39314;SDS011;28703;44.412;11.918;2023-03-05T09:54:54;12.18;;;6.05;;
39314;SDS011;28703;44.412;11.918;2023-03-05T10:00:02;14.65;;;7.43;;
39314;SDS011;28703;44.412;11.918;2023-03-05T10:02:39;16.23;;;7.38;;
39314;SDS011;28703;44.412;11.918;2023-03-05T10:05:17;18.63;;;9.05;;
39314;SDS011;28703;44.412;11.918;2023-03-05T10:07:54;21.20;;;10.40;;
39314;SDS011;28703;44.412;11.918;2023-03-05T10:10:37;18.63;;;9.55;;
39314;SDS011;28703;44.412;11.918;2023-03-05T10:13:11;19.83;;;9.45;;
39314;SDS011;28703;44.412;11.918;2023-03-05T10:15:52;21.55;;;10.32;;
39314;SDS011;28703;44.412;11.918;2023-03-05T10:18:58;16.15;;;9.80;;
39314;SDS011;28703;44.412;11.918;2023-03-05T10:30:21;17.70;;;9.70;;
39314;SDS011;28703;44.412;11.918;2023-03-05T10:38:52;17.40;;;9.50;;
39314;SDS011;28703;44.412;11.918;2023-03-05T10:44:19;14.57;;;9.07;;
39314;SDS011;28703;44.412;11.918;2023-03-05T10:46:55;12.75;;;8.02;;
39314;SDS011;28703;44.412;11.918;2023-03-05T10:49:31;18.05;;;8.23;;
39314;SDS011;28703;44.412;11.918;2023-03-05T10:52:03;17.85;;;8.90;;
39314;SDS011;28703;44.412;11.918;2023-03-05T10:54:37;16.95;;;9.02;;
39314;SDS011;28703;44.412;11.918;2023-03-05T10:57:26;21.58;;;12.15;;
39314;SDS011;28703;44.412;11.918;2023-03-05T11:02:32;22.67;;;9.02;;
39314;SDS011;28703;44.412;11.918;2023-03-05T11:04:59;16.95;;;9.13;;
39314;SDS011;28703;44.412;11.918;2023-03-05T11:10:01;15.23;;;8.77;;
39314;SDS011;28703;44.412;11.918;2023-03-05T11:12:34;11.18;;;7.95;;
39314;SDS011;28703;44.412;11.918;2023-03-05T11:15:18;16.23;;;8.03;;
39314;SDS011;28703;44.412;11.918;2023-03-05T11:17:47;14.52;;;6.43;;
39314;SDS011;28703;44.412;11.918;2023-03-05T11:20:31;14.40;;;6.60;;
39314;SDS011;28703;44.412;11.918;2023-03-05T11:28:38;11.98;;;6.13;;
39314;SDS011;28703;44.412;11.918;2023-03-05T11:34:06;10.98;;;6.38;;
39314;SDS011;28703;44.412;11.918;2023-03-05T11:39:21;13.98;;;7.32;;
39314;SDS011;28703;44.412;11.918;2023-03-05T11:46:55;15.38;;;6.97;;
39314;SDS011;28703;44.412;11.918;2023-03-05T11:49:42;15.50;;;7.68;;
39314;SDS011;28703;44.412;11.918;2023-03-05T11:52:21;13.98;;;6.88;;
39314;SDS011;28703;44.412;11.918;2023-03-05T11:57:33;16.25;;;8.68;;
39314;SDS011;28703;44.412;11.918;2023-03-05T12:00:29;17.38;;;8.57;;
39314;SDS011;28703;44.412;11.918;2023-03-05T12:02:58;22.98;;;8.43;;
39314;SDS011;28703;44.412;11.918;2023-03-05T12:05:28;20.05;;;9.60;;
39314;SDS011;28703;44.412;11.918;2023-03-05T12:07:57;16.45;;;9.68;;
39314;SDS011;28703;44.412;11.918;2023-03-05T12:10:25;13.85;;;8.18;;
39314;SDS011;28703;44.412;11.918;2023-03-05T12:12:53;13.25;;;7.90;;
39314;SDS011;28703;44.412;11.918;2023-03-05T12:18:59;16.83;;;7.03;;
39314;SDS011;28703;44.412;11.918;2023-03-05T12:21:39;16.20;;;7.18;;
39314;SDS011;28703;44.412;11.918;2023-03-05T12:29:30;9.95;;;6.57;;
39314;SDS011;28703;44.412;11.918;2023-03-05T12:34:56;15.95;;;5.82;;
39314;SDS011;28703;44.412;11.918;2023-03-05T12:47:42;9.20;;;6.55;;
39314;SDS011;28703;44.412;11.918;2023-03-05T12:55:23;11.77;;;7.85;;
39314;SDS011;28703;44.412;11.918;2023-03-05T12:58:10;15.25;;;8.27;;
39314;SDS011;28703;44.412;11.918;2023-03-05T13:00:39;12.27;;;7.25;;
39314;SDS011;28703;44.412;11.918;2023-03-05T13:03:17;13.85;;;6.47;;
39314;SDS011;28703;44.412;11.918;2023-03-05T13:05:50;10.93;;;7.60;;
39314;SDS011;28703;44.412;11.918;2023-03-05T13:08:28;12.48;;;7.47;;
39314;SDS011;28703;44.412;11.918;2023-03-05T13:13:27;10.90;;;7.18;;
39314;SDS011;28703;44.412;11.918;2023-03-05T13:15:57;11.50;;;7.15;;
39314;SDS011;28703;44.412;11.918;2023-03-05T13:18:24;13.45;;;7.97;;
39314;SDS011;28703;44.412;11.918;2023-03-05T13:21:00;14.40;;;8.15;;
39314;SDS011;28703;44.412;11.918;2023-03-05T13:23:29;13.27;;;7.93;;
39314;SDS011;28703;44.412;11.918;2023-03-05T13:26:09;21.55;;;8.98;;
39314;SDS011;28703;44.412;11.918;2023-03-05T13:29:28;15.82;;;6.82;;
39314;SDS011;28703;44.412;11.918;2023-03-05T13:34:22;12.25;;;7.22;;
39314;SDS011;28703;44.412;11.918;2023-03-05T13:37:01;11.45;;;6.82;;
39314;SDS011;28703;44.412;11.918;2023-03-05T13:39:49;16.88;;;7.13;;
39314;SDS011;28703;44.412;11.918;2023-03-05T13:42:40;13.48;;;7.30;;
39314;SDS011;28703;44.412;11.918;2023-03-05T13:45:17;9.98;;;6.35;;
39314;SDS011;28703;44.412;11.918;2023-03-05T13:47:54;13.20;;;7.03;;
39314;SDS011;28703;44.412;11.918;2023-03-05T13:50:29;14.63;;;7.15;;
39314;SDS011;28703;44.412;11.918;2023-03-05T13:53:13;11.25;;;7.28;;
39314;SDS011;28703;44.412;11.918;2023-03-05T13:55:46;15.50;;;7.63;;
39314;SDS011;28703;44.412;11.918;2023-03-05T14:01:12;14.73;;;7.72;;
39314;SDS011;28703;44.412;11.918;2023-03-05T14:03:39;18.05;;;11.82;;
39314;SDS011;28703;44.412;11.918;2023-03-05T14:06:07;19.98;;;14.75;;
39314;SDS011;28703;44.412;11.918;2023-03-05T14:08:35;20.98;;;14.60;;
39314;SDS011;28703;44.412;11.918;2023-03-05T14:11:11;23.00;;;16.85;;
39314;SDS011;28703;44.412;11.918;2023-03-05T14:13:42;22.02;;;16.35;;
39314;SDS011;28703;44.412;11.918;2023-03-05T14:16:12;23.40;;;17.52;;
39314;SDS011;28703;44.412;11.918;2023-03-05T14:19:03;29.77;;;16.30;;
39314;SDS011;28703;44.412;11.918;2023-03-05T14:21:47;25.15;;;16.63;;
39314;SDS011;28703;44.412;11.918;2023-03-05T14:24:22;24.13;;;16.60;;
39314;SDS011;28703;44.412;11.918;2023-03-05T14:26:54;29.80;;;16.35;;
39314;SDS011;28703;44.412;11.918;2023-03-05T14:29:33;22.45;;;15.52;;
39314;SDS011;28703;44.412;11.918;2023-03-05T14:32:06;22.95;;;15.00;;
39314;SDS011;28703;44.412;11.918;2023-03-05T14:34:45;25.67;;;13.95;;
39314;SDS011;28703;44.412;11.918;2023-03-05T14:37:21;23.35;;;15.23;;
39314;SDS011;28703;44.412;11.918;2023-03-05T14:39:52;20.88;;;13.93;;
39314;SDS011;28703;44.412;11.918;2023-03-05T14:44:58;26.10;;;15.48;;
39314;SDS011;28703;44.412;11.918;2023-03-05T14:47:26;27.35;;;14.80;;
39314;SDS011;28703;44.412;11.918;2023-03-05T14:49:53;26.83;;;15.80;;
39314;SDS011;28703;44.412;11.918;2023-03-05T14:52:20;28.83;;;16.48;;
39314;SDS011;28703;44.412;11.918;2023-03-05T14:54:55;25.92;;;15.18;;
39314;SDS011;28703;44.412;11.918;2023-03-05T14:57:22;36.13;;;17.75;;
39314;SDS011;28703;44.412;11.918;2023-03-05T14:59:51;24.85;;;18.35;;
39314;SDS011;28703;44.412;11.918;2023-03-05T15:02:21;26.63;;;15.60;;
39314;SDS011;28703;44.412;11.918;2023-03-05T15:04:49;24.77;;;15.60;;
39314;SDS011;28703;44.412;11.918;2023-03-05T15:07:16;33.17;;;21.25;;
39314;SDS011;28703;44.412;11.918;2023-03-05T15:09:44;24.70;;;15.93;;
39314;SDS011;28703;44.412;11.918;2023-03-05T15:12:16;28.65;;;16.23;;
39314;SDS011;28703;44.412;11.918;2023-03-05T15:14:43;24.05;;;14.05;;
39314;SDS011;28703;44.412;11.918;2023-03-05T15:17:13;20.17;;;14.65;;
39314;SDS011;28703;44.412;11.918;2023-03-05T15:19:46;22.75;;;14.77;;
39314;SDS011;28703;44.412;11.918;2023-03-05T15:22:17;20.42;;;13.63;;
39314;SDS011;28703;44.412;11.918;2023-03-05T15:24:44;33.08;;;15.98;;
39314;SDS011;28703;44.412;11.918;2023-03-05T15:27:16;27.55;;;16.40;;
39314;SDS011;28703;44.412;11.918;2023-03-05T15:29:42;25.98;;;16.00;;
39314;SDS011;28703;44.412;11.918;2023-03-05T15:32:09;31.27;;;18.55;;
39314;SDS011;28703;44.412;11.918;2023-03-05T15:34:35;27.05;;;16.92;;
39314;SDS011;28703;44.412;11.918;2023-03-05T15:37:05;23.05;;;16.85;;
39314;SDS011;28703;44.412;11.918;2023-03-05T15:39:32;31.40;;;18.63;;
39314;SDS011;28703;44.412;11.918;2023-03-05T15:42:01;28.63;;;19.15;;
39314;SDS011;28703;44.412;11.918;2023-03-05T15:44:32;28.20;;;19.23;;
39314;SDS011;28703;44.412;11.918;2023-03-05T15:47:07;23.88;;;17.05;;
39314;SDS011;28703;44.412;11.918;2023-03-05T15:49:42;26.30;;;18.45;;
39314;SDS011;28703;44.412;11.918;2023-03-05T15:52:10;29.17;;;19.60;;
39314;SDS011;28703;44.412;11.918;2023-03-05T15:54:38;31.77;;;21.33;;
39314;SDS011;28703;44.412;11.918;2023-03-05T15:57:09;27.05;;;19.08;;
39314;SDS011;28703;44.412;11.918;2023-03-05T15:59:35;26.75;;;18.25;;